sensor_id;sensor_type;location;lat;lon;timestamp;pressure;altitude;pressure_sealevel;temperature;humidity
75942;BME280;64622;46.220;19.878;2023-09-19T00:00:41;100145.37;;;21.92;67.18
75942;BME280;64622;46.220;19.878;2023-09-19T00:03:08;100139.22;;;21.85;67.40
75942;BME280;64622;46.220;19.878;2023-09-19T00:05:36;100141.72;;;21.87;67.87
75942;BME280;64622;46.220;19.878;2023-09-19T00:08:05;100143.00;;;21.84;67.72
75942;BME280;64622;46.220;19.878;2023-09-19T00:10:33;100150.94;;;21.86;67.79
75942;BME280;64622;46.220;19.878;2023-09-19T00:13:03;100145.34;;;21.81;67.71
75942;BME280;64622;46.220;19.878;2023-09-19T00:15:39;100138.28;;;21.91;66.81
75942;BME280;64622;46.220;19.878;2023-09-19T00:18:07;100143.69;;;21.80;67.37
75942;BME280;64622;46.220;19.878;2023-09-19T00:20:36;100148.91;;;21.81;67.20
75942;BME280;64622;46.220;19.878;2023-09-19T00:23:03;100149.50;;;21.83;67.14
75942;BME280;64622;46.220;19.878;2023-09-19T00:25:31;100156.03;;;21.82;67.36
75942;BME280;64622;46.220;19.878;2023-09-19T00:27:59;100156.88;;;21.83;67.58
75942;BME280;64622;46.220;19.878;2023-09-19T00:30:26;100141.91;;;21.74;67.95
75942;BME280;64622;46.220;19.878;2023-09-19T00:32:53;100144.41;;;21.75;68.56
75942;BME280;64622;46.220;19.878;2023-09-19T00:35:21;100146.06;;;21.76;68.05
75942;BME280;64622;46.220;19.878;2023-09-19T00:37:51;100134.47;;;21.69;68.10
75942;BME280;64622;46.220;19.878;2023-09-19T00:40:18;100123.69;;;21.74;67.62
75942;BME280;64622;46.220;19.878;2023-09-19T00:42:46;100135.63;;;21.73;67.92
75942;BME280;64622;46.220;19.878;2023-09-19T00:45:14;100134.88;;;21.66;68.37
75942;BME280;64622;46.220;19.878;2023-09-19T00:47:47;100130.88;;;21.69;68.10
75942;BME280;64622;46.220;19.878;2023-09-19T00:50:18;100135.59;;;21.62;68.95
75942;BME280;64622;46.220;19.878;2023-09-19T00:52:46;100132.37;;;21.65;68.49
75942;BME280;64622;46.220;19.878;2023-09-19T00:55:14;100134.03;;;21.66;68.70
75942;BME280;64622;46.220;19.878;2023-09-19T00:57:42;100125.75;;;21.61;69.32
75942;BME280;64622;46.220;19.878;2023-09-19T01:00:11;100132.63;;;21.63;69.46
75942;BME280;64622;46.220;19.878;2023-09-19T01:02:42;100123.97;;;21.55;69.71
75942;BME280;64622;46.220;19.878;2023-09-19T01:05:10;100126.69;;;21.55;70.06
75942;BME280;64622;46.220;19.878;2023-09-19T01:07:36;100115.19;;;21.53;69.80
75942;BME280;64622;46.220;19.878;2023-09-19T01:10:13;100121.22;;;21.55;70.31
75942;BME280;64622;46.220;19.878;2023-09-19T01:18:31;100114.00;;;21.49;70.61
75942;BME280;64622;46.220;19.878;2023-09-19T01:21:15;100114.00;;;21.49;70.79
75942;BME280;64622;46.220;19.878;2023-09-19T01:24:00;100125.03;;;21.54;70.30
75942;BME280;64622;46.220;19.878;2023-09-19T01:29:48;100110.69;;;21.47;71.23
75942;BME280;64622;46.220;19.878;2023-09-19T01:32:19;100102.84;;;21.39;71.27
75942;BME280;64622;46.220;19.878;2023-09-19T01:34:55;100114.22;;;21.47;70.63
75942;BME280;64622;46.220;19.878;2023-09-19T01:37:25;100110.44;;;21.37;71.57
75942;BME280;64622;46.220;19.878;2023-09-19T01:39:56;100108.53;;;21.37;72.25
75942;BME280;64622;46.220;19.878;2023-09-19T01:42:36;100115.41;;;21.40;72.00
75942;BME280;64622;46.220;19.878;2023-09-19T01:45:12;100130.22;;;21.44;71.98
75942;BME280;64622;46.220;19.878;2023-09-19T01:47:48;100112.31;;;21.36;71.93
75942;BME280;64622;46.220;19.878;2023-09-19T01:52:56;100129.63;;;21.42;72.10
75942;BME280;64622;46.220;19.878;2023-09-19T01:55:26;100132.81;;;21.39;72.29
75942;BME280;64622;46.220;19.878;2023-09-19T01:58:06;100133.88;;;21.38;72.52
75942;BME280;64622;46.220;19.878;2023-09-19T02:00:36;100120.94;;;21.33;72.47
75942;BME280;64622;46.220;19.878;2023-09-19T02:03:05;100123.28;;;21.30;72.83
75942;BME280;64622;46.220;19.878;2023-09-19T02:05:31;100128.75;;;21.30;72.96
75942;BME280;64622;46.220;19.878;2023-09-19T02:07:59;100129.91;;;21.22;73.97
75942;BME280;64622;46.220;19.878;2023-09-19T02:10:27;100137.97;;;21.29;73.41
75942;BME280;64622;46.220;19.878;2023-09-19T02:12:53;100146.72;;;21.31;73.02
75942;BME280;64622;46.220;19.878;2023-09-19T02:15:20;100151.59;;;21.29;73.52
75942;BME280;64622;46.220;19.878;2023-09-19T02:17:46;100145.78;;;21.25;74.49
75942;BME280;64622;46.220;19.878;2023-09-19T02:20:13;100147.31;;;21.21;74.15
75942;BME280;64622;46.220;19.878;2023-09-19T02:22:43;100146.47;;;21.21;74.55
75942;BME280;64622;46.220;19.878;2023-09-19T02:25:10;100147.75;;;21.18;75.11
75942;BME280;64622;46.220;19.878;2023-09-19T02:27:37;100123.44;;;21.05;76.75
75942;BME280;64622;46.220;19.878;2023-09-19T02:30:04;100129.34;;;21.02;78.02
75942;BME280;64622;46.220;19.878;2023-09-19T02:32:32;100108.72;;;20.95;78.40
75942;BME280;64622;46.220;19.878;2023-09-19T02:35:02;100118.31;;;20.97;77.60
75942;BME280;64622;46.220;19.878;2023-09-19T02:37:31;100115.59;;;20.97;77.34
75942;BME280;64622;46.220;19.878;2023-09-19T02:39:59;100116.28;;;20.93;77.76
75942;BME280;64622;46.220;19.878;2023-09-19T02:42:26;100121.87;;;20.98;77.66
75942;BME280;64622;46.220;19.878;2023-09-19T02:44:53;100111.31;;;20.90;78.11
75942;BME280;64622;46.220;19.878;2023-09-19T02:47:19;100123.84;;;20.91;77.65
75942;BME280;64622;46.220;19.878;2023-09-19T02:49:46;100135.34;;;20.93;78.40
75942;BME280;64622;46.220;19.878;2023-09-19T02:52:13;100125.56;;;20.85;78.74
75942;BME280;64622;46.220;19.878;2023-09-19T02:54:40;100135.34;;;20.93;78.14
75942;BME280;64622;46.220;19.878;2023-09-19T02:57:08;100130.72;;;20.93;77.41
75942;BME280;64622;46.220;19.878;2023-09-19T02:59:35;100123.41;;;20.94;77.26
75942;BME280;64622;46.220;19.878;2023-09-19T03:02:03;100112.50;;;20.94;77.26
75942;BME280;64622;46.220;19.878;2023-09-19T03:04:31;100104.78;;;20.91;78.61
75942;BME280;64622;46.220;19.878;2023-09-19T03:06:59;100099.66;;;20.83;78.85
75942;BME280;64622;46.220;19.878;2023-09-19T03:09:27;100100.25;;;20.85;79.07
75942;BME280;64622;46.220;19.878;2023-09-19T03:11:54;100112.78;;;20.86;78.72
75942;BME280;64622;46.220;19.878;2023-09-19T03:14:21;100104.13;;;20.95;76.73
75942;BME280;64622;46.220;19.878;2023-09-19T03:16:49;100101.41;;;20.95;77.20
75942;BME280;64622;46.220;19.878;2023-09-19T03:19:16;100106.47;;;20.92;76.40
75942;BME280;64622;46.220;19.878;2023-09-19T03:21:42;100110.06;;;21.04;75.29
75942;BME280;64622;46.220;19.878;2023-09-19T03:24:10;100104.25;;;21.00;74.48
75942;BME280;64622;46.220;19.878;2023-09-19T03:26:38;100102.13;;;21.02;73.85
75942;BME280;64622;46.220;19.878;2023-09-19T03:29:05;100103.91;;;21.08;72.66
75942;BME280;64622;46.220;19.878;2023-09-19T03:31:36;100103.59;;;21.16;71.61
75942;BME280;64622;46.220;19.878;2023-09-19T03:34:03;100110.34;;;21.14;71.58
75942;BME280;64622;46.220;19.878;2023-09-19T03:36:30;100089.72;;;21.06;72.54
75942;BME280;64622;46.220;19.878;2023-09-19T03:38:57;100091.25;;;21.02;73.15
75942;BME280;64622;46.220;19.878;2023-09-19T03:41:23;100088.06;;;21.05;72.25
75942;BME280;64622;46.220;19.878;2023-09-19T03:43:51;100074.19;;;20.95;73.46
75942;BME280;64622;46.220;19.878;2023-09-19T03:46:18;100074.78;;;20.97;72.68
75942;BME280;64622;46.220;19.878;2023-09-19T03:48:46;100064.75;;;20.98;72.95
75942;BME280;64622;46.220;19.878;2023-09-19T03:51:13;100068.03;;;21.00;72.60
75942;BME280;64622;46.220;19.878;2023-09-19T03:53:39;100064.25;;;21.01;73.42
75942;BME280;64622;46.220;19.878;2023-09-19T03:56:06;100057.72;;;20.90;74.25
75942;BME280;64622;46.220;19.878;2023-09-19T03:58:33;100077.72;;;20.96;74.85
75942;BME280;64622;46.220;19.878;2023-09-19T04:01:01;100076.59;;;20.85;76.12
75942;BME280;64622;46.220;19.878;2023-09-19T04:03:27;100073.53;;;20.82;77.53
75942;BME280;64622;46.220;19.878;2023-09-19T04:06:01;100072.75;;;20.75;78.44
75942;BME280;64622;46.220;19.878;2023-09-19T04:08:29;100098.91;;;20.76;79.67
75942;BME280;64622;46.220;19.878;2023-09-19T04:10:55;100089.41;;;20.67;81.13
75942;BME280;64622;46.220;19.878;2023-09-19T04:13:23;100107.59;;;20.66;83.21
75942;BME280;64622;46.220;19.878;2023-09-19T04:15:50;100106.03;;;20.59;84.28
75942;BME280;64622;46.220;19.878;2023-09-19T04:18:16;100112.16;;;20.54;85.41
75942;BME280;64622;46.220;19.878;2023-09-19T04:20:48;100108.53;;;20.42;88.16
75942;BME280;64622;46.220;19.878;2023-09-19T04:23:16;100106.78;;;20.30;89.62
75942;BME280;64622;46.220;19.878;2023-09-19T04:25:43;100100.81;;;20.21;90.63
75942;BME280;64622;46.220;19.878;2023-09-19T04:28:09;100093.19;;;20.12;91.23
75942;BME280;64622;46.220;19.878;2023-09-19T04:30:37;100109.28;;;20.13;91.80
75942;BME280;64622;46.220;19.878;2023-09-19T04:33:06;100113.72;;;20.08;92.41
75942;BME280;64622;46.220;19.878;2023-09-19T04:35:33;100100.38;;;20.00;92.82
75942;BME280;64622;46.220;19.878;2023-09-19T04:38:01;100114.59;;;20.02;93.29
75942;BME280;64622;46.220;19.878;2023-09-19T04:40:29;100118.78;;;19.98;93.61
75942;BME280;64622;46.220;19.878;2023-09-19T04:42:56;100106.31;;;19.90;93.98
75942;BME280;64622;46.220;19.878;2023-09-19T04:45:23;100107.75;;;19.93;94.29
75942;BME280;64622;46.220;19.878;2023-09-19T04:47:50;100117.19;;;19.90;94.55
75942;BME280;64622;46.220;19.878;2023-09-19T04:50:16;100106.53;;;19.89;94.63
75942;BME280;64622;46.220;19.878;2023-09-19T04:52:45;100106.72;;;19.94;94.62
75942;BME280;64622;46.220;19.878;2023-09-19T04:55:14;100122.94;;;20.00;94.73
75942;BME280;64622;46.220;19.878;2023-09-19T04:57:49;100100.38;;;20.00;94.51
75942;BME280;64622;46.220;19.878;2023-09-19T05:00:18;100113.03;;;20.12;94.17
75942;BME280;64622;46.220;19.878;2023-09-19T05:02:48;100107.00;;;20.10;93.76
75942;BME280;64622;46.220;19.878;2023-09-19T05:05:15;100113.19;;;20.17;92.83
75942;BME280;64622;46.220;19.878;2023-09-19T05:07:43;100104.22;;;20.17;92.56
75942;BME280;64622;46.220;19.878;2023-09-19T05:10:10;100114.87;;;20.18;92.04
75942;BME280;64622;46.220;19.878;2023-09-19T05:12:38;100115.91;;;20.17;92.10
75942;BME280;64622;46.220;19.878;2023-09-19T05:15:06;100118.25;;;20.14;91.80
75942;BME280;64622;46.220;19.878;2023-09-19T05:17:34;100123.91;;;20.12;91.62
75942;BME280;64622;46.220;19.878;2023-09-19T05:20:01;100126.25;;;20.09;91.74
75942;BME280;64622;46.220;19.878;2023-09-19T05:22:41;100122.72;;;20.08;92.01
75942;BME280;64622;46.220;19.878;2023-09-19T05:25:12;100128.16;;;20.08;92.31
75942;BME280;64622;46.220;19.878;2023-09-19T05:27:43;100130.41;;;20.05;92.50
75942;BME280;64622;46.220;19.878;2023-09-19T05:30:10;100132.91;;;20.06;92.75
75942;BME280;64622;46.220;19.878;2023-09-19T05:32:37;100132.31;;;20.04;93.17
75942;BME280;64622;46.220;19.878;2023-09-19T05:35:04;100119.06;;;19.90;93.83
75942;BME280;64622;46.220;19.878;2023-09-19T05:37:34;100129.56;;;19.86;94.13
75942;BME280;64622;46.220;19.878;2023-09-19T05:40:01;100129.59;;;19.80;94.43
75942;BME280;64622;46.220;19.878;2023-09-19T05:42:29;100134.22;;;19.79;94.75
75942;BME280;64622;46.220;19.878;2023-09-19T05:44:55;100148.94;;;19.90;94.52
75942;BME280;64622;46.220;19.878;2023-09-19T05:47:22;100132.97;;;20.00;94.28
75942;BME280;64622;46.220;19.878;2023-09-19T05:49:49;100132.53;;;20.03;94.33
75942;BME280;64622;46.220;19.878;2023-09-19T05:52:16;100139.78;;;20.15;93.79
75942;BME280;64622;46.220;19.878;2023-09-19T05:54:44;100125.06;;;20.23;93.34
75942;BME280;64622;46.220;19.878;2023-09-19T05:57:10;100132.34;;;20.47;92.53
75942;BME280;64622;46.220;19.878;2023-09-19T05:59:38;100132.00;;;20.55;91.10
75942;BME280;64622;46.220;19.878;2023-09-19T06:02:06;100131.72;;;20.63;91.15
75942;BME280;64622;46.220;19.878;2023-09-19T06:04:33;100129.44;;;20.78;89.94
75942;BME280;64622;46.220;19.878;2023-09-19T06:06:59;100125.41;;;20.98;89.08
75942;BME280;64622;46.220;19.878;2023-09-19T06:09:26;100131.47;;;20.82;88.55
75942;BME280;64622;46.220;19.878;2023-09-19T06:11:54;100137.00;;;20.94;87.26
75942;BME280;64622;46.220;19.878;2023-09-19T06:14:21;100132.28;;;21.01;86.81
75942;BME280;64622;46.220;19.878;2023-09-19T06:16:50;100133.91;;;20.90;85.95
75942;BME280;64622;46.220;19.878;2023-09-19T06:19:17;100141.84;;;21.21;84.80
75942;BME280;64622;46.220;19.878;2023-09-19T06:21:43;100145.06;;;21.30;83.20
75942;BME280;64622;46.220;19.878;2023-09-19T06:24:12;100148.34;;;21.79;81.17
75942;BME280;64622;46.220;19.878;2023-09-19T06:26:39;100128.09;;;22.21;77.01
75942;BME280;64622;46.220;19.878;2023-09-19T06:29:06;100122.25;;;22.64;73.41
75942;BME280;64622;46.220;19.878;2023-09-19T06:31:33;100136.59;;;22.13;76.00
75942;BME280;64622;46.220;19.878;2023-09-19T06:34:00;100153.47;;;22.10;75.87
75942;BME280;64622;46.220;19.878;2023-09-19T06:36:27;100139.06;;;21.69;78.60
75942;BME280;64622;46.220;19.878;2023-09-19T06:38:53;100144.44;;;21.87;78.70
75942;BME280;64622;46.220;19.878;2023-09-19T06:41:20;100146.56;;;21.96;78.84
75942;BME280;64622;46.220;19.878;2023-09-19T06:43:50;100140.28;;;21.84;78.33
75942;BME280;64622;46.220;19.878;2023-09-19T06:46:19;100137.59;;;21.66;79.10
75942;BME280;64622;46.220;19.878;2023-09-19T06:48:47;100131.03;;;22.08;77.88
75942;BME280;64622;46.220;19.878;2023-09-19T06:51:14;100131.53;;;22.17;77.15
75942;BME280;64622;46.220;19.878;2023-09-19T06:53:42;100138.63;;;22.06;78.05
75942;BME280;64622;46.220;19.878;2023-09-19T06:56:09;100132.34;;;22.29;76.09
75942;BME280;64622;46.220;19.878;2023-09-19T06:58:36;100137.34;;;22.32;77.27
75942;BME280;64622;46.220;19.878;2023-09-19T07:01:03;100132.22;;;22.01;77.98
75942;BME280;64622;46.220;19.878;2023-09-19T07:03:30;100129.03;;;22.15;77.43
75942;BME280;64622;46.220;19.878;2023-09-19T07:05:59;100135.91;;;22.06;78.68
75942;BME280;64622;46.220;19.878;2023-09-19T07:08:26;100127.72;;;22.18;78.61
75942;BME280;64622;46.220;19.878;2023-09-19T07:10:52;100135.06;;;22.40;77.87
75942;BME280;64622;46.220;19.878;2023-09-19T07:13:20;100137.34;;;22.32;77.71
75942;BME280;64622;46.220;19.878;2023-09-19T07:15:46;100134.25;;;22.51;76.99
75942;BME280;64622;46.220;19.878;2023-09-19T07:18:14;100136.63;;;22.59;76.95
75942;BME280;64622;46.220;19.878;2023-09-19T07:20:43;100129.97;;;22.55;75.60
75942;BME280;64622;46.220;19.878;2023-09-19T07:23:11;100137.06;;;22.79;75.71
75942;BME280;64622;46.220;19.878;2023-09-19T07:25:40;100132.91;;;22.77;75.33
75942;BME280;64622;46.220;19.878;2023-09-19T07:28:07;100150.16;;;22.94;73.52
75942;BME280;64622;46.220;19.878;2023-09-19T07:30:36;100143.31;;;22.80;73.53
75942;BME280;64622;46.220;19.878;2023-09-19T07:33:04;100132.94;;;22.93;73.45
75942;BME280;64622;46.220;19.878;2023-09-19T07:35:32;100132.78;;;23.11;72.37
75942;BME280;64622;46.220;19.878;2023-09-19T07:37:59;100136.25;;;23.35;70.65
75942;BME280;64622;46.220;19.878;2023-09-19T07:40:28;100151.47;;;23.59;70.05
75942;BME280;64622;46.220;19.878;2023-09-19T07:42:55;100148.47;;;23.77;68.38
75942;BME280;64622;46.220;19.878;2023-09-19T07:45:22;100147.53;;;24.54;65.85
75942;BME280;64622;46.220;19.878;2023-09-19T07:47:50;100160.06;;;23.67;68.24
75942;BME280;64622;46.220;19.878;2023-09-19T07:50:18;100156.72;;;24.10;67.91
75942;BME280;64622;46.220;19.878;2023-09-19T07:52:45;100152.47;;;23.86;67.87
75942;BME280;64622;46.220;19.878;2023-09-19T07:55:12;100154.00;;;24.64;64.42
75942;BME280;64622;46.220;19.878;2023-09-19T07:57:43;100161.47;;;24.69;64.02
75942;BME280;64622;46.220;19.878;2023-09-19T08:00:10;100152.81;;;25.73;58.10
75942;BME280;64622;46.220;19.878;2023-09-19T08:02:37;100173.38;;;24.79;62.68
75942;BME280;64622;46.220;19.878;2023-09-19T08:05:04;100174.16;;;24.42;65.00
75942;BME280;64622;46.220;19.878;2023-09-19T08:07:42;100173.13;;;24.43;66.37
75942;BME280;64622;46.220;19.878;2023-09-19T08:10:10;100207.41;;;25.05;64.03
75942;BME280;64622;46.220;19.878;2023-09-19T08:12:40;100211.00;;;24.67;65.12
75942;BME280;64622;46.220;19.878;2023-09-19T08:15:19;100198.38;;;24.50;64.87
75942;BME280;64622;46.220;19.878;2023-09-19T08:17:49;100207.91;;;24.47;66.94
75942;BME280;64622;46.220;19.878;2023-09-19T08:20:16;100211.34;;;25.14;63.62
75942;BME280;64622;46.220;19.878;2023-09-19T08:22:50;100215.69;;;24.72;63.91
75942;BME280;64622;46.220;19.878;2023-09-19T08:25:18;100222.06;;;25.15;62.27
75942;BME280;64622;46.220;19.878;2023-09-19T08:27:46;100220.37;;;25.84;59.72
75942;BME280;64622;46.220;19.878;2023-09-19T08:30:15;100223.63;;;25.81;59.98
75942;BME280;64622;46.220;19.878;2023-09-19T08:32:42;100221.22;;;25.58;61.02
75942;BME280;64622;46.220;19.878;2023-09-19T08:35:10;100217.31;;;25.80;60.31
75942;BME280;64622;46.220;19.878;2023-09-19T08:37:36;100221.88;;;26.59;56.75
75942;BME280;64622;46.220;19.878;2023-09-19T08:40:04;100228.16;;;27.58;53.32
75942;BME280;64622;46.220;19.878;2023-09-19T08:42:55;100228.06;;;27.33;54.19
75942;BME280;64622;46.220;19.878;2023-09-19T08:45:23;100237.06;;;26.72;57.30
75942;BME280;64622;46.220;19.878;2023-09-19T08:50:43;100239.44;;;25.69;65.02
75942;BME280;64622;46.220;19.878;2023-09-19T08:56:07;100260.38;;;25.80;66.82
75942;BME280;64622;46.220;19.878;2023-09-19T08:58:41;100269.50;;;26.43;65.43
75942;BME280;64622;46.220;19.878;2023-09-19T09:01:11;100273.34;;;26.74;64.21
75942;BME280;64622;46.220;19.878;2023-09-19T09:03:40;100287.59;;;25.00;79.27
75942;BME280;64622;46.220;19.878;2023-09-19T09:06:09;100301.59;;;25.04;80.57
75942;BME280;64622;46.220;19.878;2023-09-19T09:08:38;100307.53;;;24.79;81.24
75942;BME280;64622;46.220;19.878;2023-09-19T09:11:06;100301.75;;;24.15;83.98
75942;BME280;64622;46.220;19.878;2023-09-19T09:13:35;100303.22;;;23.38;86.38
75942;BME280;64622;46.220;19.878;2023-09-19T09:16:02;100306.22;;;23.14;88.36
75942;BME280;64622;46.220;19.878;2023-09-19T09:18:29;100302.44;;;23.26;87.69
75942;BME280;64622;46.220;19.878;2023-09-19T09:20:59;100309.75;;;23.49;87.15
75942;BME280;64622;46.220;19.878;2023-09-19T09:23:26;100307.38;;;23.41;87.68
75942;BME280;64622;46.220;19.878;2023-09-19T09:25:56;100311.03;;;23.86;85.91
75942;BME280;64622;46.220;19.878;2023-09-19T09:28:24;100324.91;;;23.96;85.57
75942;BME280;64622;46.220;19.878;2023-09-19T09:30:51;100326.25;;;23.93;85.33
75942;BME280;64622;46.220;19.878;2023-09-19T09:33:18;100317.03;;;23.71;85.70
75942;BME280;64622;46.220;19.878;2023-09-19T09:35:49;100338.97;;;24.16;84.00
75942;BME280;64622;46.220;19.878;2023-09-19T09:38:19;100318.72;;;23.61;85.96
75942;BME280;64622;46.220;19.878;2023-09-19T09:40:50;100340.12;;;23.64;85.93
75942;BME280;64622;46.220;19.878;2023-09-19T09:43:38;100344.09;;;23.22;86.81
75942;BME280;64622;46.220;19.878;2023-09-19T09:46:19;100341.75;;;22.79;88.09
75942;BME280;64622;46.220;19.878;2023-09-19T09:51:41;100343.06;;;23.74;84.15
75942;BME280;64622;46.220;19.878;2023-09-19T09:54:16;100337.38;;;24.81;76.85
75942;BME280;64622;46.220;19.878;2023-09-19T09:56:58;100326.75;;;24.84;76.10
75942;BME280;64622;46.220;19.878;2023-09-19T09:59:56;100339.03;;;25.96;68.92
75942;BME280;64622;46.220;19.878;2023-09-19T10:02:42;100353.88;;;25.78;65.24
75942;BME280;64622;46.220;19.878;2023-09-19T10:05:13;100346.06;;;26.13;63.47
75942;BME280;64622;46.220;19.878;2023-09-19T10:07:50;100360.50;;;25.82;62.12
75942;BME280;64622;46.220;19.878;2023-09-19T10:10:32;100341.13;;;26.15;60.13
75942;BME280;64622;46.220;19.878;2023-09-19T10:13:12;100345.06;;;26.51;57.77
75942;BME280;64622;46.220;19.878;2023-09-19T10:15:42;100338.47;;;26.52;57.89
75942;BME280;64622;46.220;19.878;2023-09-19T10:18:25;100341.03;;;26.32;58.29
75942;BME280;64622;46.220;19.878;2023-09-19T10:20:52;100340.78;;;26.91;55.80
75942;BME280;64622;46.220;19.878;2023-09-19T10:23:20;100331.84;;;26.74;56.07
75942;BME280;64622;46.220;19.878;2023-09-19T10:25:50;100342.63;;;26.54;56.00
75942;BME280;64622;46.220;19.878;2023-09-19T10:28:18;100347.34;;;26.06;57.89
75942;BME280;64622;46.220;19.878;2023-09-19T10:30:50;100337.44;;;26.26;57.54
75942;BME280;64622;46.220;19.878;2023-09-19T10:33:22;100343.44;;;25.54;59.44
75942;BME280;64622;46.220;19.878;2023-09-19T10:35:50;100336.34;;;25.20;60.33
75942;BME280;64622;46.220;19.878;2023-09-19T10:38:26;100330.22;;;24.47;62.87
75942;BME280;64622;46.220;19.878;2023-09-19T10:40:56;100322.69;;;25.03;58.61
75942;BME280;64622;46.220;19.878;2023-09-19T10:43:30;100332.63;;;25.26;56.74
75942;BME280;64622;46.220;19.878;2023-09-19T10:46:02;100337.03;;;25.70;56.12
75942;BME280;64622;46.220;19.878;2023-09-19T10:48:31;100333.56;;;25.53;57.10
75942;BME280;64622;46.220;19.878;2023-09-19T10:51:14;100326.75;;;25.82;55.11
75942;BME280;64622;46.220;19.878;2023-09-19T10:53:43;100317.38;;;25.78;55.16
75942;BME280;64622;46.220;19.878;2023-09-19T10:56:18;100324.72;;;25.29;56.14
75942;BME280;64622;46.220;19.878;2023-09-19T10:58:45;100317.50;;;24.85;57.06
75942;BME280;64622;46.220;19.878;2023-09-19T11:01:12;100318.13;;;25.25;56.33
75942;BME280;64622;46.220;19.878;2023-09-19T11:03:41;100322.91;;;25.18;55.40
75942;BME280;64622;46.220;19.878;2023-09-19T11:06:17;100327.94;;;25.43;54.62
75942;BME280;64622;46.220;19.878;2023-09-19T11:11:47;100328.81;;;27.12;49.07
75942;BME280;64622;46.220;19.878;2023-09-19T11:30:50;100326.28;;;27.42;46.83
75942;BME280;64622;46.220;19.878;2023-09-19T11:33:21;100318.22;;;26.89;48.34
75942;BME280;64622;46.220;19.878;2023-09-19T11:36:11;100318.25;;;27.36;47.04
75942;BME280;64622;46.220;19.878;2023-09-19T11:46:32;100302.09;;;28.41;44.49
75942;BME280;64622;46.220;19.878;2023-09-19T11:49:06;100303.72;;;28.87;43.39
75942;BME280;64622;46.220;19.878;2023-09-19T11:51:41;100300.16;;;28.61;42.81
75942;BME280;64622;46.220;19.878;2023-09-19T11:54:13;100290.78;;;28.17;44.19
75942;BME280;64622;46.220;19.878;2023-09-19T11:56:49;100287.75;;;28.54;43.30
75942;BME280;64622;46.220;19.878;2023-09-19T11:59:21;100297.25;;;27.76;45.33
75942;BME280;64622;46.220;19.878;2023-09-19T12:01:56;100283.38;;;28.53;43.84
75942;BME280;64622;46.220;19.878;2023-09-19T12:04:39;100289.59;;;29.33;41.94
75942;BME280;64622;46.220;19.878;2023-09-19T12:07:16;100291.03;;;29.16;41.45
75942;BME280;64622;46.220;19.878;2023-09-19T12:09:44;100287.31;;;29.50;41.33
75942;BME280;64622;46.220;19.878;2023-09-19T12:12:21;100282.56;;;28.47;43.67
75942;BME280;64622;46.220;19.878;2023-09-19T12:14:51;100279.72;;;29.86;40.68
75942;BME280;64622;46.220;19.878;2023-09-19T12:17:18;100273.66;;;29.79;40.24
75942;BME280;64622;46.220;19.878;2023-09-19T12:19:51;100269.34;;;29.53;40.64
75942;BME280;64622;46.220;19.878;2023-09-19T12:22:19;100282.62;;;29.56;40.92
75942;BME280;64622;46.220;19.878;2023-09-19T12:24:49;100258.75;;;30.57;37.83
75942;BME280;64622;46.220;19.878;2023-09-19T12:27:17;100274.47;;;30.61;38.15
75942;BME280;64622;46.220;19.878;2023-09-19T12:29:45;100276.62;;;29.97;39.05
75942;BME280;64622;46.220;19.878;2023-09-19T12:32:12;100269.81;;;30.23;38.37
75942;BME280;64622;46.220;19.878;2023-09-19T12:34:40;100271.81;;;30.08;38.78
75942;BME280;64622;46.220;19.878;2023-09-19T12:37:11;100278.38;;;28.95;41.15
75942;BME280;64622;46.220;19.878;2023-09-19T12:39:39;100278.09;;;28.06;43.45
75942;BME280;64622;46.220;19.878;2023-09-19T12:42:10;100283.63;;;28.16;43.33
75942;BME280;64622;46.220;19.878;2023-09-19T12:44:44;100283.88;;;28.95;42.19
75942;BME280;64622;46.220;19.878;2023-09-19T12:47:15;100291.94;;;29.70;40.72
75942;BME280;64622;46.220;19.878;2023-09-19T12:52:56;100289.13;;;28.16;43.17
75942;BME280;64622;46.220;19.878;2023-09-19T12:55:28;100295.94;;;27.22;45.63
75942;BME280;64622;46.220;19.878;2023-09-19T13:00:41;100301.87;;;26.73;46.72
75942;BME280;64622;46.220;19.878;2023-09-19T13:03:14;100296.78;;;27.94;43.73
75942;BME280;64622;46.220;19.878;2023-09-19T13:05:54;100292.88;;;27.80;44.27
75942;BME280;64622;46.220;19.878;2023-09-19T13:08:27;100296.59;;;28.51;42.01
75942;BME280;64622;46.220;19.878;2023-09-19T13:11:05;100289.34;;;29.30;40.23
75942;BME280;64622;46.220;19.878;2023-09-19T13:13:49;100294.16;;;29.63;39.23
75942;BME280;64622;46.220;19.878;2023-09-19T13:16:21;100295.03;;;30.12;38.50
75942;BME280;64622;46.220;19.878;2023-09-19T13:18:53;100288.37;;;30.13;38.09
75942;BME280;64622;46.220;19.878;2023-09-19T13:21:33;100274.34;;;30.04;38.08
75942;BME280;64622;46.220;19.878;2023-09-19T13:26:46;100289.91;;;29.22;39.88
75942;BME280;64622;46.220;19.878;2023-09-19T13:29:12;100282.81;;;28.56;40.85
75942;BME280;64622;46.220;19.878;2023-09-19T13:31:40;100267.81;;;27.77;42.05
75942;BME280;64622;46.220;19.878;2023-09-19T13:34:08;100274.81;;;26.86;43.41
75942;BME280;64622;46.220;19.878;2023-09-19T13:36:34;100278.25;;;26.72;44.01
75942;BME280;64622;46.220;19.878;2023-09-19T13:39:00;100277.28;;;27.34;42.74
75942;BME280;64622;46.220;19.878;2023-09-19T13:41:27;100279.19;;;28.85;39.96
75942;BME280;64622;46.220;19.878;2023-09-19T13:43:54;100273.66;;;29.10;38.19
75942;BME280;64622;46.220;19.878;2023-09-19T13:46:23;100269.28;;;28.34;39.03
75942;BME280;64622;46.220;19.878;2023-09-19T13:48:53;100261.91;;;28.55;39.12